< < Back
Terminal Aerodrome Forecast


Current Version              Previous Versions:   1  2  3  4  5  6  7  8  9  

Terminal Aerodrome Forecast

058
FTUS42 KFFC 151100
TAFPDK
TAF
KPDK 151133Z 1512/1612 06003KT 4SM BR OVC005
     FM151400 09005KT P6SM OVC008
     FM151600 13006KT P6SM BKN012
     FM151800 19006KT P6SM BKN025
     FM152000 22006KT P6SM VCSH SCT025 BKN040
      TEMPO 1521/1601 4SM -TSRA BKN025CB
     FM160600 25004KT P6SM VCSH BKN025
     FM161000 32007KT 6SM BR BKN015=



Latest METAR

679
SAUS70 KWBC 160100 RRE
MTRPDK
METAR KPDK 160053Z 00000KT 7SM FEW120 23/21 A3015 RMK AO2 SLP197
T02280206


USA.gov is the U.S. government's official web portal to all federal, state and local government web resources and services.